PWSweather.com
Personal Weather Stations
Station Observations
OZIERI
Punta Idda, OzieriIT

Punta IddaOzieriIT

Lat: 40.584142, Lon: 9.007657999999992

Elevation: 1483

Station Type: Lacrosse ws2350

Latest ConditionsUpdated 5:15:12 AM GMT+01:01 Saturday, Feb 24, 2018
Currently Today's Max Today's Min Today's Average
Temperature 41.5°F5.3°C 42.4°F5.8°C 41.2°F5.1°C 41.8°F5.4°C
Dew Point 39.2°F4.0°C 40.3°F4.6°C 38.8°F3.8°C 39.6°F4.2°C
Winds 1.3 mph W2.1 kmh W 5.4 mph WNW8.7 kmh WNW - 2.9 mph 4.7 kmh
Wind Gusts 5.1 mph8.2 kmh 10.5 mph16.9 kmh - -
Humidity 91% 92% 91% 92%
Pressure 29.60 in1002.4 mb 29.60 in1002.4 mb 29.58 in1001.7 mb -
Hour Temp Dew Point Humidity Winds Wind Gusts Pressure Precip Precip Rate Daily Precip Total
05:15 AM 41.5°F5.3°C 39.2°F4.0°C 91% 1.3 mph W2.1 kmh W 5.1 mph8.2 kmh 29.60 in1002.4 mb 0.00 in0.0 mm 0.00 in0.0 mm 0.00 in0.0 mm
05:12 AM 41.5°F5.3°C 39.2°F4.0°C 91% 1.8 mph NW2.9 kmh NW 3.1 mph5.0 kmh 29.60 in1002.4 mb 0.00 in0.0 mm 0.00 in0.0 mm 0.00 in0.0 mm
05:10 AM 41.5°F5.3°C 39.2°F4.0°C 91% 2.2 mph NW3.5 kmh NW 4.0 mph6.4 kmh 29.60 in1002.4 mb 0.00 in0.0 mm 0.00 in0.0 mm 0.00 in0.0 mm
05:08 AM 41.5°F5.3°C 39.2°F4.0°C 91% 2.7 mph WNW4.3 kmh WNW 4.5 mph7.2 kmh 29.60 in1002.4 mb 0.00 in0.0 mm 0.00 in0.0 mm 0.00 in0.0 mm
05:06 AM 41.5°F5.3°C 39.2°F4.0°C 91% 2.5 mph W4.0 kmh W 5.4 mph8.7 kmh 29.59 in1002.0 mb 0.00 in0.0 mm 0.00 in0.0 mm 0.00 in0.0 mm
05:04 AM 41.5°F5.3°C 39.2°F4.0°C 91% 2.9 mph W4.7 kmh W 3.8 mph6.1 kmh 29.60 in1002.4 mb 0.00 in0.0 mm 0.00 in0.0 mm 0.00 in0.0 mm
05:02 AM 41.5°F5.3°C 39.2°F4.0°C 91% 3.4 mph WNW5.5 kmh WNW 8.1 mph13.0 kmh 29.60 in1002.4 mb 0.00 in0.0 mm 0.00 in0.0 mm 0.00 in0.0 mm
05:00 AM 41.5°F5.3°C 39.2°F4.0°C 91% 2.7 mph NW4.3 kmh NW 6.0 mph9.7 kmh 29.60 in1002.4 mb 0.00 in0.0 mm 0.00 in0.0 mm 0.00 in0.0 mm
04:57 AM 41.5°F5.3°C 39.2°F4.0°C 91% 2.0 mph NW3.2 kmh NW 4.0 mph6.4 kmh 29.60 in1002.4 mb 0.00 in0.0 mm 0.00 in0.0 mm 0.00 in0.0 mm
04:55 AM 41.5°F5.3°C 39.2°F4.0°C 91% 2.2 mph NNW3.5 kmh NNW 4.7 mph7.6 kmh 29.60 in1002.4 mb 0.00 in0.0 mm 0.00 in0.0 mm 0.00 in0.0 mm
04:53 AM 41.5°F5.3°C 39.2°F4.0°C 91% 2.7 mph WNW4.3 kmh WNW 6.0 mph9.7 kmh 29.60 in1002.4 mb 0.00 in0.0 mm 0.00 in0.0 mm 0.00 in0.0 mm
04:51 AM 41.5°F5.3°C 39.2°F4.0°C 91% 2.2 mph W3.5 kmh W 6.9 mph11.1 kmh 29.60 in1002.4 mb 0.00 in0.0 mm 0.00 in0.0 mm 0.00 in0.0 mm
04:49 AM 41.5°F5.3°C 39.2°F4.0°C 91% 2.0 mph W3.2 kmh W 2.5 mph4.0 kmh 29.60 in1002.4 mb 0.00 in0.0 mm 0.00 in0.0 mm 0.00 in0.0 mm
04:46 AM 41.5°F5.3°C 39.2°F4.0°C 91% 3.1 mph W5.0 kmh W 6.5 mph10.5 kmh 29.60 in1002.4 mb 0.00 in0.0 mm 0.00 in0.0 mm 0.00 in0.0 mm
04:44 AM 41.5°F5.3°C 39.2°F4.0°C 91% 4.0 mph W6.4 kmh W 8.1 mph13.0 kmh 29.60 in1002.4 mb 0.00 in0.0 mm 0.00 in0.0 mm 0.00 in0.0 mm
04:42 AM 41.4°F5.2°C 39.0°F3.9°C 91% 3.6 mph WSW5.8 kmh WSW 7.4 mph11.9 kmh 29.59 in1002.0 mb 0.00 in0.0 mm 0.00 in0.0 mm 0.00 in0.0 mm
04:40 AM 41.4°F5.2°C 39.0°F3.9°C 91% 3.4 mph NNW5.5 kmh NNW 7.2 mph11.6 kmh 29.59 in1002.0 mb 0.00 in0.0 mm 0.00 in0.0 mm 0.00 in0.0 mm
04:38 AM 41.4°F5.2°C 39.0°F3.9°C 91% 3.8 mph NE6.1 kmh NE 7.6 mph12.2 kmh 29.59 in1002.0 mb 0.00 in0.0 mm 0.00 in0.0 mm 0.00 in0.0 mm
04:36 AM 41.4°F5.2°C 39.0°F3.9°C 91% 3.6 mph WNW5.8 kmh WNW 4.7 mph7.6 kmh 29.60 in1002.4 mb 0.00 in0.0 mm 0.00 in0.0 mm 0.00 in0.0 mm
04:33 AM 41.4°F5.2°C 39.0°F3.9°C 91% 3.6 mph E5.8 kmh E 5.4 mph8.7 kmh 29.60 in1002.4 mb 0.00 in0.0 mm 0.00 in0.0 mm 0.00 in0.0 mm
04:31 AM 41.4°F5.2°C 39.0°F3.9°C 91% 3.8 mph WNW6.1 kmh WNW 4.5 mph7.2 kmh 29.60 in1002.4 mb 0.00 in0.0 mm 0.00 in0.0 mm 0.00 in0.0 mm
04:29 AM 41.4°F5.2°C 39.0°F3.9°C 91% 4.3 mph NW6.9 kmh NW 10.5 mph16.9 kmh 29.60 in1002.4 mb 0.00 in0.0 mm 0.00 in0.0 mm 0.00 in0.0 mm
04:27 AM 41.4°F5.2°C 39.0°F3.9°C 91% 3.1 mph WSW5.0 kmh WSW 6.3 mph10.1 kmh 29.59 in1002.0 mb 0.00 in0.0 mm 0.00 in0.0 mm 0.00 in0.0 mm
04:24 AM 41.4°F5.2°C 39.0°F3.9°C 91% 2.9 mph WNW4.7 kmh WNW 8.1 mph13.0 kmh 29.59 in1002.0 mb 0.00 in0.0 mm 0.00 in0.0 mm 0.00 in0.0 mm
04:22 AM 41.4°F5.2°C 39.0°F3.9°C 91% 3.8 mph W6.1 kmh W 4.3 mph6.9 kmh 29.59 in1002.0 mb 0.00 in0.0 mm 0.00 in0.0 mm 0.00 in0.0 mm
04:20 AM 41.2°F5.1°C 38.8°F3.8°C 91% 4.5 mph WNW7.2 kmh WNW 6.0 mph9.7 kmh 29.59 in1002.0 mb 0.00 in0.0 mm 0.00 in0.0 mm 0.00 in0.0 mm
04:18 AM 41.2°F5.1°C 38.8°F3.8°C 91% 4.7 mph NNW7.6 kmh NNW 7.4 mph11.9 kmh 29.59 in1002.0 mb 0.00 in0.0 mm 0.00 in0.0 mm 0.00 in0.0 mm
04:16 AM 41.2°F5.1°C 38.8°F3.8°C 91% 4.9 mph W7.9 kmh W 10.1 mph16.3 kmh 29.59 in1002.0 mb 0.00 in0.0 mm 0.00 in0.0 mm 0.00 in0.0 mm
04:13 AM 41.2°F5.1°C 38.8°F3.8°C 91% 3.8 mph WNW6.1 kmh WNW 5.1 mph8.2 kmh 29.60 in1002.4 mb 0.00 in0.0 mm 0.00 in0.0 mm 0.00 in0.0 mm
04:11 AM 41.2°F5.1°C 38.8°F3.8°C 91% 3.8 mph WNW6.1 kmh WNW 5.6 mph9.0 kmh 29.60 in1002.4 mb 0.00 in0.0 mm 0.00 in0.0 mm 0.00 in0.0 mm
04:09 AM 41.2°F5.1°C 38.8°F3.8°C 91% 4.3 mph WNW6.9 kmh WNW 10.3 mph16.6 kmh 29.60 in1002.4 mb 0.00 in0.0 mm 0.00 in0.0 mm 0.00 in0.0 mm
04:07 AM 41.4°F5.2°C 39.0°F3.9°C 91% 2.7 mph NW4.3 kmh NW 7.6 mph12.2 kmh 29.60 in1002.4 mb 0.00 in0.0 mm 0.00 in0.0 mm 0.00 in0.0 mm
04:05 AM 41.4°F5.2°C 39.0°F3.9°C 91% 2.2 mph NNW3.5 kmh NNW 3.8 mph6.1 kmh 29.60 in1002.4 mb 0.00 in0.0 mm 0.00 in0.0 mm 0.00 in0.0 mm
04:03 AM 41.4°F5.2°C 39.0°F3.9°C 91% 2.5 mph W4.0 kmh W 3.8 mph6.1 kmh 29.60 in1002.4 mb 0.00 in0.0 mm 0.00 in0.0 mm 0.00 in0.0 mm
04:01 AM 41.4°F5.2°C 39.0°F3.9°C 91% 2.9 mph WNW4.7 kmh WNW 4.7 mph7.6 kmh 29.60 in1002.4 mb 0.00 in0.0 mm 0.00 in0.0 mm 0.00 in0.0 mm
03:58 AM 41.4°F5.2°C 39.0°F3.9°C 91% 3.4 mph W5.5 kmh W 4.3 mph6.9 kmh 29.60 in1002.4 mb 0.00 in0.0 mm 0.00 in0.0 mm 0.00 in0.0 mm
03:56 AM 41.4°F5.2°C 39.0°F3.9°C 91% 3.4 mph WSW5.5 kmh WSW 5.4 mph8.7 kmh 29.59 in1002.0 mb 0.00 in0.0 mm 0.00 in0.0 mm 0.00 in0.0 mm
03:54 AM 41.4°F5.2°C 39.0°F3.9°C 91% 3.6 mph NNW5.8 kmh NNW 4.9 mph7.9 kmh 29.59 in1002.0 mb 0.00 in0.0 mm 0.00 in0.0 mm 0.00 in0.0 mm
03:52 AM 41.4°F5.2°C 39.0°F3.9°C 91% 3.4 mph W5.5 kmh W 5.8 mph9.3 kmh 29.59 in1002.0 mb 0.00 in0.0 mm 0.00 in0.0 mm 0.00 in0.0 mm
03:50 AM 41.4°F5.2°C 39.2°F4.0°C 92% 3.4 mph WNW5.5 kmh WNW 5.4 mph8.7 kmh 29.59 in1002.0 mb 0.00 in0.0 mm 0.00 in0.0 mm 0.00 in0.0 mm
03:47 AM 41.4°F5.2°C 39.2°F4.0°C 92% 3.4 mph W5.5 kmh W 4.9 mph7.9 kmh 29.60 in1002.4 mb 0.00 in0.0 mm 0.00 in0.0 mm 0.00 in0.0 mm
03:45 AM 41.4°F5.2°C 39.2°F4.0°C 92% 3.6 mph NNW5.8 kmh NNW 6.3 mph10.1 kmh 29.60 in1002.4 mb 0.00 in0.0 mm 0.00 in0.0 mm 0.00 in0.0 mm
03:43 AM 41.4°F5.2°C 39.2°F4.0°C 92% 2.7 mph W4.3 kmh W 5.1 mph8.2 kmh 29.60 in1002.4 mb 0.00 in0.0 mm 0.00 in0.0 mm 0.00 in0.0 mm
03:41 AM 41.4°F5.2°C 39.2°F4.0°C 92% 2.5 mph WSW4.0 kmh WSW 6.3 mph10.1 kmh 29.60 in1002.4 mb 0.00 in0.0 mm 0.00 in0.0 mm 0.00 in0.0 mm
03:38 AM 41.4°F5.2°C 39.2°F4.0°C 92% 2.2 mph W3.5 kmh W 4.5 mph7.2 kmh 29.60 in1002.4 mb 0.00 in0.0 mm 0.00 in0.0 mm 0.00 in0.0 mm
03:36 AM 41.4°F5.2°C 39.2°F4.0°C 92% 2.7 mph 4.3 kmh 5.1 mph8.2 kmh 29.60 in1002.4 mb 0.00 in0.0 mm 0.00 in0.0 mm 0.00 in0.0 mm
03:34 AM 41.4°F5.2°C 39.2°F4.0°C 92% 2.9 mph NW4.7 kmh NW 5.1 mph8.2 kmh 29.60 in1002.4 mb 0.00 in0.0 mm 0.00 in0.0 mm 0.00 in0.0 mm
03:32 AM 41.4°F5.2°C 39.2°F4.0°C 92% 2.2 mph W3.5 kmh W 6.3 mph10.1 kmh 29.60 in1002.4 mb 0.00 in0.0 mm 0.00 in0.0 mm 0.00 in0.0 mm
03:30 AM 41.4°F5.2°C 39.2°F4.0°C 92% 1.8 mph 2.9 kmh 3.6 mph5.8 kmh 29.59 in1002.0 mb 0.00 in0.0 mm 0.00 in0.0 mm 0.00 in0.0 mm
03:27 AM 41.5°F5.3°C 39.4°F4.1°C 92% 2.0 mph NNW3.2 kmh NNW 4.3 mph6.9 kmh 29.59 in1002.0 mb 0.00 in0.0 mm 0.00 in0.0 mm 0.00 in0.0 mm
03:25 AM 41.5°F5.3°C 39.4°F4.1°C 92% 1.8 mph S2.9 kmh S 2.5 mph4.0 kmh 29.59 in1002.0 mb 0.00 in0.0 mm 0.00 in0.0 mm 0.00 in0.0 mm
03:23 AM 41.5°F5.3°C 39.4°F4.1°C 92% 1.8 mph NNW2.9 kmh NNW 1.8 mph2.9 kmh 29.59 in1002.0 mb 0.00 in0.0 mm 0.00 in0.0 mm 0.00 in0.0 mm
03:21 AM 41.5°F5.3°C 39.4°F4.1°C 92% 2.2 mph NW3.5 kmh NW 3.1 mph5.0 kmh 29.59 in1002.0 mb 0.00 in0.0 mm 0.00 in0.0 mm 0.00 in0.0 mm
03:19 AM 41.5°F5.3°C 39.4°F4.1°C 92% 2.0 mph SW3.2 kmh SW 4.5 mph7.2 kmh 29.60 in1002.4 mb 0.00 in0.0 mm 0.00 in0.0 mm 0.00 in0.0 mm
03:17 AM 41.5°F5.3°C 39.4°F4.1°C 92% 1.6 mph NNW2.6 kmh NNW 2.5 mph4.0 kmh 29.60 in1002.4 mb 0.00 in0.0 mm 0.00 in0.0 mm 0.00 in0.0 mm
03:14 AM 41.5°F5.3°C 39.4°F4.1°C 92% 2.2 mph WSW3.5 kmh WSW 4.7 mph7.6 kmh 29.60 in1002.4 mb 0.00 in0.0 mm 0.00 in0.0 mm 0.00 in0.0 mm
03:12 AM 41.5°F5.3°C 39.4°F4.1°C 92% 1.6 mph NW2.6 kmh NW 2.0 mph3.2 kmh 29.60 in1002.4 mb 0.00 in0.0 mm 0.00 in0.0 mm 0.00 in0.0 mm
03:10 AM 41.5°F5.3°C 39.4°F4.1°C 92% 2.5 mph NNW4.0 kmh NNW 5.1 mph8.2 kmh 29.59 in1002.0 mb 0.00 in0.0 mm 0.00 in0.0 mm 0.00 in0.0 mm
03:08 AM 41.5°F5.3°C 39.4°F4.1°C 92% 2.5 mph NNE4.0 kmh NNE 4.9 mph7.9 kmh 29.59 in1002.0 mb 0.00 in0.0 mm 0.00 in0.0 mm 0.00 in0.0 mm
03:05 AM 41.5°F5.3°C 39.4°F4.1°C 92% 2.5 mph WNW4.0 kmh WNW 4.0 mph6.4 kmh 29.59 in1002.0 mb 0.00 in0.0 mm 0.00 in0.0 mm 0.00 in0.0 mm
03:03 AM 41.5°F5.3°C 39.4°F4.1°C 92% 2.9 mph 4.7 kmh 5.1 mph8.2 kmh 29.59 in1002.0 mb 0.00 in0.0 mm 0.00 in0.0 mm 0.00 in0.0 mm
03:01 AM 41.5°F5.3°C 39.4°F4.1°C 92% 3.6 mph W5.8 kmh W 6.0 mph9.7 kmh 29.59 in1002.0 mb 0.00 in0.0 mm 0.00 in0.0 mm 0.00 in0.0 mm
02:58 AM 41.5°F5.3°C 39.4°F4.1°C 92% 2.9 mph WNW4.7 kmh WNW 4.5 mph7.2 kmh 29.59 in1002.0 mb 0.00 in0.0 mm 0.00 in0.0 mm 0.00 in0.0 mm
02:56 AM 41.7°F5.4°C 39.6°F4.2°C 92% 2.5 mph SSW4.0 kmh SSW 4.5 mph7.2 kmh 29.59 in1002.0 mb 0.00 in0.0 mm 0.00 in0.0 mm 0.00 in0.0 mm
02:54 AM 41.7°F5.4°C 39.6°F4.2°C 92% 2.9 mph WNW4.7 kmh WNW 4.3 mph6.9 kmh 29.60 in1002.4 mb 0.00 in0.0 mm 0.00 in0.0 mm 0.00 in0.0 mm
02:52 AM 41.7°F5.4°C 39.6°F4.2°C 92% 2.9 mph W4.7 kmh W 4.3 mph6.9 kmh 29.60 in1002.4 mb 0.00 in0.0 mm 0.00 in0.0 mm 0.00 in0.0 mm
02:49 AM 41.7°F5.4°C 39.6°F4.2°C 92% 2.9 mph NNW4.7 kmh NNW 4.7 mph7.6 kmh 29.60 in1002.4 mb 0.00 in0.0 mm 0.00 in0.0 mm 0.00 in0.0 mm
02:47 AM 41.7°F5.4°C 39.6°F4.2°C 92% 3.6 mph WSW5.8 kmh WSW 6.0 mph9.7 kmh 29.60 in1002.4 mb 0.00 in0.0 mm 0.00 in0.0 mm 0.00 in0.0 mm
02:45 AM 41.7°F5.4°C 39.6°F4.2°C 92% 3.4 mph SSW5.5 kmh SSW 5.1 mph8.2 kmh 29.59 in1002.0 mb 0.00 in0.0 mm 0.00 in0.0 mm 0.00 in0.0 mm
02:43 AM 41.7°F5.4°C 39.6°F4.2°C 92% 3.6 mph W5.8 kmh W 5.8 mph9.3 kmh 29.59 in1002.0 mb 0.00 in0.0 mm 0.00 in0.0 mm 0.00 in0.0 mm
02:40 AM 41.7°F5.4°C 39.6°F4.2°C 92% 3.8 mph WNW6.1 kmh WNW 4.5 mph7.2 kmh 29.59 in1002.0 mb 0.00 in0.0 mm 0.00 in0.0 mm 0.00 in0.0 mm
02:38 AM 41.5°F5.3°C 39.4°F4.1°C 92% 4.0 mph WNW6.4 kmh WNW 5.1 mph8.2 kmh 29.59 in1002.0 mb 0.00 in0.0 mm 0.00 in0.0 mm 0.00 in0.0 mm
02:36 AM 41.5°F5.3°C 39.4°F4.1°C 92% 4.7 mph NW7.6 kmh NW 6.0 mph9.7 kmh 29.59 in1002.0 mb 0.00 in0.0 mm 0.00 in0.0 mm 0.00 in0.0 mm
02:34 AM 41.5°F5.3°C 39.4°F4.1°C 92% 5.4 mph WNW8.7 kmh WNW 9.8 mph15.8 kmh 29.59 in1002.0 mb 0.00 in0.0 mm 0.00 in0.0 mm 0.00 in0.0 mm
02:32 AM 41.5°F5.3°C 39.4°F4.1°C 92% 4.5 mph WNW7.2 kmh WNW 6.9 mph11.1 kmh 29.59 in1002.0 mb 0.00 in0.0 mm 0.00 in0.0 mm 0.00 in0.0 mm
02:30 AM 41.7°F5.4°C 39.6°F4.2°C 92% 3.6 mph NW5.8 kmh NW 4.9 mph7.9 kmh 29.59 in1002.0 mb 0.00 in0.0 mm 0.00 in0.0 mm 0.00 in0.0 mm
02:27 AM 41.5°F5.3°C 39.4°F4.1°C 92% 4.9 mph WNW7.9 kmh WNW 8.3 mph13.4 kmh 29.59 in1002.0 mb 0.00 in0.0 mm 0.00 in0.0 mm 0.00 in0.0 mm
02:25 AM 41.7°F5.4°C 39.6°F4.2°C 92% 4.9 mph WNW7.9 kmh WNW 10.3 mph16.6 kmh 29.59 in1002.0 mb 0.00 in0.0 mm 0.00 in0.0 mm 0.00 in0.0 mm
02:23 AM 41.7°F5.4°C 39.6°F4.2°C 92% 3.4 mph NW5.5 kmh NW 6.3 mph10.1 kmh 29.59 in1002.0 mb 0.00 in0.0 mm 0.00 in0.0 mm 0.00 in0.0 mm
02:21 AM 41.7°F5.4°C 39.6°F4.2°C 92% 3.4 mph NNW5.5 kmh NNW 5.1 mph8.2 kmh 29.59 in1002.0 mb 0.00 in0.0 mm 0.00 in0.0 mm 0.00 in0.0 mm
02:19 AM 41.7°F5.4°C 39.6°F4.2°C 92% 2.5 mph W4.0 kmh W 3.6 mph5.8 kmh 29.59 in1002.0 mb 0.00 in0.0 mm 0.00 in0.0 mm 0.00 in0.0 mm
02:17 AM 41.7°F5.4°C 39.6°F4.2°C 92% 2.9 mph WNW4.7 kmh WNW 5.8 mph9.3 kmh 29.59 in1002.0 mb 0.00 in0.0 mm 0.00 in0.0 mm 0.00 in0.0 mm
02:14 AM 41.7°F5.4°C 39.6°F4.2°C 92% 2.2 mph WSW3.5 kmh WSW 4.5 mph7.2 kmh 29.59 in1002.0 mb 0.00 in0.0 mm 0.00 in0.0 mm 0.00 in0.0 mm
02:12 AM 41.9°F5.5°C 39.7°F4.3°C 92% 2.5 mph NNW4.0 kmh NNW 4.3 mph6.9 kmh 29.59 in1002.0 mb 0.00 in0.0 mm 0.00 in0.0 mm 0.00 in0.0 mm
02:10 AM 41.9°F5.5°C 39.7°F4.3°C 92% 2.2 mph SW3.5 kmh SW 3.6 mph5.8 kmh 29.59 in1002.0 mb 0.00 in0.0 mm 0.00 in0.0 mm 0.00 in0.0 mm
02:08 AM 41.9°F5.5°C 39.7°F4.3°C 92% 1.8 mph NW2.9 kmh NW 6.7 mph10.8 kmh 29.59 in1002.0 mb 0.00 in0.0 mm 0.00 in0.0 mm 0.00 in0.0 mm
02:05 AM 41.9°F5.5°C 39.7°F4.3°C 92% 2.9 mph W4.7 kmh W -- 29.59 in1002.0 mb 0.00 in0.0 mm 0.00 in0.0 mm 0.00 in0.0 mm
01:58 AM 41.9°F5.5°C 39.7°F4.3°C 92% 2.5 mph WNW4.0 kmh WNW 5.4 mph8.7 kmh 29.59 in1002.0 mb 0.00 in0.0 mm 0.00 in0.0 mm 0.00 in0.0 mm
01:56 AM 41.9°F5.5°C 39.7°F4.3°C 92% 1.8 mph WSW2.9 kmh WSW 2.5 mph4.0 kmh 29.59 in1002.0 mb 0.00 in0.0 mm 0.00 in0.0 mm 0.00 in0.0 mm
01:53 AM 42.1°F5.6°C 39.9°F4.4°C 92% 2.7 mph NW4.3 kmh NW 6.0 mph9.7 kmh 29.59 in1002.0 mb 0.00 in0.0 mm 0.00 in0.0 mm 0.00 in0.0 mm
01:51 AM 41.9°F5.5°C 39.7°F4.3°C 92% 2.9 mph NW4.7 kmh NW 6.0 mph9.7 kmh 29.59 in1002.0 mb 0.00 in0.0 mm 0.00 in0.0 mm 0.00 in0.0 mm
01:49 AM 41.9°F5.5°C 39.7°F4.3°C 92% 3.1 mph NW5.0 kmh NW 7.4 mph11.9 kmh 29.59 in1002.0 mb 0.00 in0.0 mm 0.00 in0.0 mm 0.00 in0.0 mm
01:47 AM 41.9°F5.5°C 39.7°F4.3°C 92% 2.7 mph WNW4.3 kmh WNW 3.8 mph6.1 kmh 29.59 in1002.0 mb 0.00 in0.0 mm 0.00 in0.0 mm 0.00 in0.0 mm
01:45 AM 42.1°F5.6°C 39.9°F4.4°C 92% 3.4 mph NW5.5 kmh NW 4.7 mph7.6 kmh 29.59 in1002.0 mb 0.00 in0.0 mm 0.00 in0.0 mm 0.00 in0.0 mm
01:43 AM 42.1°F5.6°C 39.9°F4.4°C 92% 3.1 mph W5.0 kmh W 4.3 mph6.9 kmh 29.59 in1002.0 mb 0.00 in0.0 mm 0.00 in0.0 mm 0.00 in0.0 mm
01:40 AM 41.9°F5.5°C 39.7°F4.3°C 92% 4.3 mph W6.9 kmh W 6.5 mph10.5 kmh 29.59 in1002.0 mb 0.00 in0.0 mm 0.00 in0.0 mm 0.00 in0.0 mm
01:38 AM 42.1°F5.6°C 39.9°F4.4°C 92% 4.7 mph WNW7.6 kmh WNW 8.7 mph14.0 kmh 29.59 in1002.0 mb 0.00 in0.0 mm 0.00 in0.0 mm 0.00 in0.0 mm
01:36 AM 42.1°F5.6°C 39.9°F4.4°C 92% 3.4 mph WNW5.5 kmh WNW 4.7 mph7.6 kmh 29.59 in1002.0 mb 0.00 in0.0 mm 0.00 in0.0 mm 0.00 in0.0 mm
01:33 AM 42.1°F5.6°C 39.9°F4.4°C 92% 3.4 mph WNW5.5 kmh WNW 5.8 mph9.3 kmh 29.59 in1002.0 mb 0.00 in0.0 mm 0.00 in0.0 mm 0.00 in0.0 mm
01:31 AM 42.1°F5.6°C 39.9°F4.4°C 92% 2.5 mph WNW4.0 kmh WNW 3.1 mph5.0 kmh 29.59 in1002.0 mb 0.00 in0.0 mm 0.00 in0.0 mm 0.00 in0.0 mm
01:29 AM 42.1°F5.6°C 39.9°F4.4°C 92% 3.6 mph NW5.8 kmh NW 5.8 mph9.3 kmh 29.59 in1002.0 mb 0.00 in0.0 mm 0.00 in0.0 mm 0.00 in0.0 mm
01:27 AM 42.1°F5.6°C 39.9°F4.4°C 92% 3.4 mph NNW5.5 kmh NNW 7.6 mph12.2 kmh 29.59 in1002.0 mb 0.00 in0.0 mm 0.00 in0.0 mm 0.00 in0.0 mm
01:24 AM 42.1°F5.6°C 39.9°F4.4°C 92% 2.9 mph 4.7 kmh 5.8 mph9.3 kmh 29.59 in1002.0 mb 0.00 in0.0 mm 0.00 in0.0 mm 0.00 in0.0 mm
01:22 AM 42.3°F5.7°C 40.1°F4.5°C 92% 3.4 mph WNW5.5 kmh WNW 6.9 mph11.1 kmh 29.59 in1002.0 mb 0.00 in0.0 mm 0.00 in0.0 mm 0.00 in0.0 mm
01:20 AM 42.3°F5.7°C 40.1°F4.5°C 92% 2.9 mph NW4.7 kmh NW 3.6 mph5.8 kmh 29.59 in1002.0 mb 0.00 in0.0 mm 0.00 in0.0 mm 0.00 in0.0 mm
01:18 AM 42.3°F5.7°C 40.1°F4.5°C 92% 3.4 mph NNW5.5 kmh NNW 9.8 mph15.8 kmh 29.59 in1002.0 mb 0.00 in0.0 mm 0.00 in0.0 mm 0.00 in0.0 mm
01:16 AM 42.4°F5.8°C 40.3°F4.6°C 92% 3.1 mph NNW5.0 kmh NNW 5.4 mph8.7 kmh 29.58 in1001.7 mb 0.00 in0.0 mm 0.00 in0.0 mm 0.00 in0.0 mm
01:14 AM 42.4°F5.8°C 40.3°F4.6°C 92% 3.4 mph NNW5.5 kmh NNW 6.7 mph10.8 kmh 29.59 in1002.0 mb 0.00 in0.0 mm 0.00 in0.0 mm 0.00 in0.0 mm
01:12 AM 42.4°F5.8°C 40.3°F4.6°C 92% 3.1 mph WNW5.0 kmh WNW 5.1 mph8.2 kmh 29.59 in1002.0 mb 0.00 in0.0 mm 0.00 in0.0 mm 0.00 in0.0 mm
01:10 AM 42.4°F5.8°C 40.3°F4.6°C 92% 3.1 mph NW5.0 kmh NW 6.5 mph10.5 kmh 29.59 in1002.0 mb 0.00 in0.0 mm 0.00 in0.0 mm 0.00 in0.0 mm
01:08 AM 42.4°F5.8°C 40.3°F4.6°C 92% 2.9 mph WNW4.7 kmh WNW 3.8 mph6.1 kmh 29.59 in1002.0 mb 0.00 in0.0 mm 0.00 in0.0 mm 0.00 in0.0 mm
01:05 AM 42.4°F5.8°C 40.3°F4.6°C 92% 2.9 mph W4.7 kmh W 4.9 mph7.9 kmh 29.59 in1002.0 mb 0.00 in0.0 mm 0.00 in0.0 mm 0.00 in0.0 mm
01:03 AM 42.4°F5.8°C 40.3°F4.6°C 92% 3.1 mph WNW5.0 kmh WNW 4.5 mph7.2 kmh 29.59 in1002.0 mb 0.00 in0.0 mm 0.00 in0.0 mm 0.00 in0.0 mm
01:01 AM 42.4°F5.8°C 40.3°F4.6°C 92% 3.4 mph W5.5 kmh W 6.0 mph9.7 kmh 29.59 in1002.0 mb 0.00 in0.0 mm 0.00 in0.0 mm 0.00 in0.0 mm
12:59 AM 42.4°F5.8°C 40.3°F4.6°C 92% 2.5 mph W4.0 kmh W 3.8 mph6.1 kmh 29.59 in1002.0 mb 0.00 in0.0 mm 0.00 in0.0 mm 0.00 in0.0 mm
12:57 AM 42.4°F5.8°C 40.3°F4.6°C 92% 2.5 mph NNW4.0 kmh NNW 4.0 mph6.4 kmh 29.59 in1002.0 mb 0.00 in0.0 mm 0.00 in0.0 mm 0.00 in0.0 mm
12:55 AM 42.4°F5.8°C 40.3°F4.6°C 92% 2.7 mph NW4.3 kmh NW 4.0 mph6.4 kmh 29.59 in1002.0 mb 0.00 in0.0 mm 0.00 in0.0 mm 0.00 in0.0 mm
12:52 AM 42.4°F5.8°C 40.3°F4.6°C 92% 2.9 mph WNW4.7 kmh WNW 5.1 mph8.2 kmh 29.59 in1002.0 mb 0.00 in0.0 mm 0.00 in0.0 mm 0.00 in0.0 mm
12:50 AM 42.4°F5.8°C 40.3°F4.6°C 92% 3.8 mph WNW6.1 kmh WNW 6.9 mph11.1 kmh 29.59 in1002.0 mb 0.00 in0.0 mm 0.00 in0.0 mm 0.00 in0.0 mm
12:48 AM 42.4°F5.8°C 40.3°F4.6°C 92% 3.4 mph NW5.5 kmh NW 4.3 mph6.9 kmh 29.59 in1002.0 mb 0.00 in0.0 mm 0.00 in0.0 mm 0.00 in0.0 mm
12:45 AM 42.4°F5.8°C 40.3°F4.6°C 92% 3.4 mph NW5.5 kmh NW 5.4 mph8.7 kmh 29.59 in1002.0 mb 0.00 in0.0 mm 0.00 in0.0 mm 0.00 in0.0 mm
12:43 AM 42.4°F5.8°C 40.3°F4.6°C 92% 3.4 mph NW5.5 kmh NW 5.8 mph9.3 kmh 29.59 in1002.0 mb 0.00 in0.0 mm 0.00 in0.0 mm 0.00 in0.0 mm
12:41 AM 42.4°F5.8°C 40.3°F4.6°C 92% 3.1 mph NNW5.0 kmh NNW 7.8 mph12.6 kmh 29.59 in1002.0 mb 0.00 in0.0 mm 0.00 in0.0 mm 0.00 in0.0 mm
12:39 AM 42.4°F5.8°C 40.3°F4.6°C 92% 2.0 mph NNW3.2 kmh NNW 4.3 mph6.9 kmh 29.59 in1002.0 mb 0.00 in0.0 mm 0.00 in0.0 mm 0.00 in0.0 mm
12:37 AM 42.4°F5.8°C 40.3°F4.6°C 92% 2.0 mph NNW3.2 kmh NNW 3.4 mph5.5 kmh 29.59 in1002.0 mb 0.00 in0.0 mm 0.00 in0.0 mm 0.00 in0.0 mm
12:35 AM 42.4°F5.8°C 40.3°F4.6°C 92% 1.8 mph NNE2.9 kmh NNE 3.1 mph5.0 kmh 29.59 in1002.0 mb 0.00 in0.0 mm 0.00 in0.0 mm 0.00 in0.0 mm
12:32 AM 42.4°F5.8°C 40.3°F4.6°C 92% 2.2 mph WNW3.5 kmh WNW 3.6 mph5.8 kmh 29.59 in1002.0 mb 0.00 in0.0 mm 0.00 in0.0 mm 0.00 in0.0 mm
12:30 AM 42.4°F5.8°C 40.3°F4.6°C 92% 2.0 mph NW3.2 kmh NW 4.0 mph6.4 kmh 29.59 in1002.0 mb 0.00 in0.0 mm 0.00 in0.0 mm 0.00 in0.0 mm
12:28 AM 42.4°F5.8°C 40.3°F4.6°C 92% 2.0 mph NNW3.2 kmh NNW 4.3 mph6.9 kmh 29.59 in1002.0 mb 0.00 in0.0 mm 0.00 in0.0 mm 0.00 in0.0 mm
12:26 AM 42.4°F5.8°C 40.3°F4.6°C 92% 1.8 mph WNW2.9 kmh WNW 3.8 mph6.1 kmh 29.59 in1002.0 mb 0.00 in0.0 mm 0.00 in0.0 mm 0.00 in0.0 mm
12:23 AM 42.4°F5.8°C 40.3°F4.6°C 92% 2.0 mph WNW3.2 kmh WNW 3.1 mph5.0 kmh 29.59 in1002.0 mb 0.00 in0.0 mm 0.00 in0.0 mm 0.00 in0.0 mm
12:21 AM 42.4°F5.8°C 40.3°F4.6°C 92% 1.8 mph NNW2.9 kmh NNW 3.6 mph5.8 kmh 29.59 in1002.0 mb 0.00 in0.0 mm 0.00 in0.0 mm 0.00 in0.0 mm
12:19 AM 42.4°F5.8°C 40.3°F4.6°C 92% 1.6 mph WNW2.6 kmh WNW 1.8 mph2.9 kmh 29.59 in1002.0 mb 0.00 in0.0 mm 0.00 in0.0 mm 0.00 in0.0 mm
12:17 AM 42.4°F5.8°C 40.3°F4.6°C 92% 2.2 mph W3.5 kmh W 2.9 mph4.7 kmh 29.59 in1002.0 mb 0.00 in0.0 mm 0.00 in0.0 mm 0.00 in0.0 mm
12:15 AM 42.4°F5.8°C 40.3°F4.6°C 92% 2.5 mph NW4.0 kmh NW 5.4 mph8.7 kmh 29.58 in1001.7 mb 0.00 in0.0 mm 0.00 in0.0 mm 0.00 in0.0 mm
12:13 AM 42.4°F5.8°C 40.3°F4.6°C 92% 1.6 mph WSW2.6 kmh WSW 1.8 mph2.9 kmh 29.59 in1002.0 mb 0.00 in0.0 mm 0.00 in0.0 mm 0.00 in0.0 mm
12:11 AM 42.4°F5.8°C 40.3°F4.6°C 92% 2.0 mph NW3.2 kmh NW 2.5 mph4.0 kmh 29.58 in1001.7 mb 0.00 in0.0 mm 0.00 in0.0 mm 0.00 in0.0 mm
12:09 AM 42.4°F5.8°C 40.3°F4.6°C 92% 2.9 mph W4.7 kmh W 5.1 mph8.2 kmh 29.59 in1002.0 mb 0.00 in0.0 mm 0.00 in0.0 mm 0.00 in0.0 mm
12:07 AM 42.4°F5.8°C 40.3°F4.6°C 92% 1.8 mph NNW2.9 kmh NNW 4.0 mph6.4 kmh 29.59 in1002.0 mb 0.00 in0.0 mm 0.00 in0.0 mm 0.00 in0.0 mm
12:04 AM 42.4°F5.8°C 40.3°F4.6°C 92% 2.2 mph W3.5 kmh W 6.0 mph9.7 kmh 29.58 in1001.7 mb 0.00 in0.0 mm 0.00 in0.0 mm 0.00 in0.0 mm
12:02 AM 42.4°F5.8°C 40.3°F4.6°C 92% 2.7 mph WSW4.3 kmh WSW 5.4 mph8.7 kmh 29.58 in1001.7 mb 0.00 in0.0 mm 0.00 in0.0 mm 0.00 in0.0 mm
12:00 AM 42.4°F5.8°C 40.3°F4.6°C 92% 2.2 mph WSW3.5 kmh WSW 3.8 mph6.1 kmh 29.58 in1001.7 mb 0.00 in0.0 mm 0.00 in0.0 mm 0.00 in0.0 mm